Time;durP1;ratioP1;P1;durP2;ratioP2;P2;SDS_P1;SDS_P2;PMS_P1;PMS_P2;Temp;Humidity;BMP_temperature;BMP_pressure;BME280_temperature;BME280_humidity;BME280_pressure;Samples;Min_cycle;Max_cycle;Signal;HPM_P1;HPM_P2
2022/08/23 00:00:57;;;;;;;22.67;11.00;;;;;;;;;;5025458;28;20120;-86
2022/08/23 00:03:23;;;;;;;17.30;11.60;;;;;;;;;;5038674;28;20026;-80
2022/08/23 00:05:48;;;;;;;17.92;10.80;;;;;;;;;;5023287;28;20348;-86
2022/08/23 00:08:13;;;;;;;21.00;10.55;;;;;;;;;;5023647;28;20025;-86
2022/08/23 00:10:39;;;;;;;18.00;10.88;;;;;;;;;;5024397;28;20041;-80
2022/08/23 00:13:05;;;;;;;19.02;11.23;;;;;;;;;;5029785;28;20529;-85
2022/08/23 00:15:30;;;;;;;19.35;11.98;;;;;;;;;;5024384;28;20041;-80
2022/08/23 00:17:55;;;;;;;23.25;11.77;;;;;;;;;;5037785;28;20073;-80
2022/08/23 00:20:20;;;;;;;16.83;10.85;;;;;;;;;;5021501;28;20105;-82
2022/08/23 00:22:46;;;;;;;24.00;10.65;;;;;;;;;;5025680;28;20025;-87
2022/08/23 00:25:12;;;;;;;20.45;11.52;;;;;;;;;;5028116;28;20025;-86
2022/08/23 00:27:37;;;;;;;20.55;10.93;;;;;;;;;;5041146;28;20038;-81
2022/08/23 00:30:04;;;;;;;19.00;11.23;;;;;;;;;;5023776;28;20021;-85
2022/08/23 00:32:31;;;;;;;18.90;11.48;;;;;;;;;;5024023;28;20025;-79
2022/08/23 00:34:57;;;;;;;23.52;11.88;;;;;;;;;;5023508;28;20062;-86
2022/08/23 00:37:23;;;;;;;20.95;12.90;;;;;;;;;;5021733;28;20607;-87
2022/08/23 00:39:48;;;;;;;21.65;12.48;;;;;;;;;;5022487;28;20033;-87
2022/08/23 00:47:50;;;;;;;25.33;11.75;;;;;;;;;;5018468;28;20575;-81
2022/08/23 00:50:28;;;;;;;22.00;11.35;;;;;;;;;;5021369;28;20033;-87
2022/08/23 00:53:06;;;;;;;23.38;12.52;;;;;;;;;;5020874;28;20029;-80
2022/08/23 00:55:33;;;;;;;24.63;13.50;;;;;;;;;;5040405;28;20025;-83
2022/08/23 00:57:58;;;;;;;19.73;10.80;;;;;;;;;;5020252;28;20037;-85
2022/08/23 01:00:24;;;;;;;20.50;12.32;;;;;;;;;;5042652;28;20409;-86
2022/08/23 01:02:50;;;;;;;27.30;12.70;;;;;;;;;;5021072;28;20093;-80
2022/08/23 01:05:16;;;;;;;18.73;11.73;;;;;;;;;;5020741;28;20048;-80
2022/08/23 01:07:53;;;;;;;21.02;11.98;;;;;;;;;;5038430;28;20030;-79
2022/08/23 01:10:21;;;;;;;21.10;10.73;;;;;;;;;;5024232;28;20057;-80
2022/08/23 01:12:51;;;;;;;20.08;11.40;;;;;;;;;;5016303;28;20672;-85
2022/08/23 01:15:20;;;;;;;19.85;11.90;;;;;;;;;;5039383;28;20022;-80
2022/08/23 01:17:48;;;;;;;24.02;12.60;;;;;;;;;;5022531;28;20060;-84
2022/08/23 01:20:16;;;;;;;21.00;12.23;;;;;;;;;;5019953;28;20582;-86
2022/08/23 01:22:44;;;;;;;29.48;13.05;;;;;;;;;;5021288;28;20060;-85
2022/08/23 01:25:12;;;;;;;20.35;11.90;;;;;;;;;;5019556;28;20127;-80
2022/08/23 01:27:38;;;;;;;21.77;12.98;;;;;;;;;;5022393;28;20029;-79
2022/08/23 01:30:04;;;;;;;22.25;13.18;;;;;;;;;;5024312;28;20074;-86
2022/08/23 01:32:31;;;;;;;20.75;12.57;;;;;;;;;;5021643;28;20018;-81
2022/08/23 01:34:57;;;;;;;20.77;13.48;;;;;;;;;;5023356;28;20017;-79
2022/08/23 01:37:22;;;;;;;21.40;12.77;;;;;;;;;;5038048;28;20512;-82
2022/08/23 01:39:47;;;;;;;35.72;14.18;;;;;;;;;;5021061;28;20622;-80
2022/08/23 01:42:12;;;;;;;22.48;13.32;;;;;;;;;;5039400;28;20360;-80
2022/08/23 01:44:38;;;;;;;20.10;13.32;;;;;;;;;;5023306;28;20044;-80
2022/08/23 01:47:04;;;;;;;30.90;13.82;;;;;;;;;;5034707;28;20508;-81
2022/08/23 01:49:31;;;;;;;25.48;14.57;;;;;;;;;;5038050;28;21849;-82
2022/08/23 01:51:59;;;;;;;22.17;13.32;;;;;;;;;;5020652;28;20124;-80
2022/08/23 01:54:24;;;;;;;22.45;12.07;;;;;;;;;;5021970;28;20434;-86
2022/08/23 01:56:50;;;;;;;22.37;13.17;;;;;;;;;;5041021;28;20108;-79
2022/08/23 01:59:18;;;;;;;19.33;12.18;;;;;;;;;;5040732;28;20854;-80
2022/08/23 02:01:44;;;;;;;23.02;13.38;;;;;;;;;;5021273;28;20463;-79
2022/08/23 02:04:09;;;;;;;19.08;13.23;;;;;;;;;;5017000;28;20120;-79
2022/08/23 02:06:34;;;;;;;28.25;14.93;;;;;;;;;;5022629;28;20382;-86
2022/08/23 02:08:59;;;;;;;24.80;15.50;;;;;;;;;;5021431;28;20029;-79
2022/08/23 02:11:26;;;;;;;26.92;15.93;;;;;;;;;;5021714;28;20069;-81
2022/08/23 02:13:52;;;;;;;22.15;15.43;;;;;;;;;;5019499;28;20460;-79
2022/08/23 02:16:25;;;;;;;27.38;14.10;;;;;;;;;;5024133;28;20627;-80
2022/08/23 02:18:54;;;;;;;30.92;13.95;;;;;;;;;;5020596;28;20067;-83
2022/08/23 02:21:20;;;;;;;25.65;15.40;;;;;;;;;;5020719;28;20040;-84
2022/08/23 02:23:46;;;;;;;21.13;14.20;;;;;;;;;;5051994;28;20033;-79
2022/08/23 02:26:12;;;;;;;22.88;13.25;;;;;;;;;;5020888;28;20465;-85
2022/08/23 02:28:37;;;;;;;23.63;14.02;;;;;;;;;;5019577;28;20213;-82
2022/08/23 02:31:02;;;;;;;24.40;14.40;;;;;;;;;;5023408;28;20128;-78
2022/08/23 02:33:28;;;;;;;22.88;13.95;;;;;;;;;;5018644;28;20109;-84
2022/08/23 02:35:54;;;;;;;22.95;13.93;;;;;;;;;;5054051;28;20065;-84
2022/08/23 02:38:19;;;;;;;29.83;14.98;;;;;;;;;;5020254;28;20064;-86
2022/08/23 02:40:44;;;;;;;33.03;17.52;;;;;;;;;;5035998;28;20041;-81
2022/08/23 02:43:10;;;;;;;26.45;15.50;;;;;;;;;;5022577;28;20413;-86
2022/08/23 02:45:35;;;;;;;32.13;15.85;;;;;;;;;;5021006;28;20022;-80
2022/08/23 02:48:04;;;;;;;30.52;16.92;;;;;;;;;;5021343;28;20026;-80
2022/08/23 02:50:33;;;;;;;34.00;17.10;;;;;;;;;;5019229;28;20037;-85
2022/08/23 02:52:58;;;;;;;31.42;16.05;;;;;;;;;;5018313;28;20029;-86
2022/08/23 02:55:24;;;;;;;25.70;15.35;;;;;;;;;;5037154;28;20030;-81
2022/08/23 02:57:49;;;;;;;23.55;14.18;;;;;;;;;;5033697;28;20033;-84
2022/08/23 03:00:15;;;;;;;26.63;14.88;;;;;;;;;;5020849;28;20026;-79
2022/08/23 03:02:40;;;;;;;23.02;14.75;;;;;;;;;;5050139;28;20033;-85
2022/08/23 03:05:06;;;;;;;27.70;15.27;;;;;;;;;;5023054;28;20431;-78
2022/08/23 03:07:34;;;;;;;32.80;17.83;;;;;;;;;;5021712;28;20021;-79
2022/08/23 03:10:03;;;;;;;29.92;16.95;;;;;;;;;;5018823;28;20106;-79
2022/08/23 03:12:29;;;;;;;28.23;17.10;;;;;;;;;;5022943;28;20049;-84
2022/08/23 03:14:58;;;;;;;30.45;17.33;;;;;;;;;;5024423;28;20517;-85
2022/08/23 03:17:23;;;;;;;27.45;17.10;;;;;;;;;;5021415;28;20237;-86
2022/08/23 03:19:48;;;;;;;27.05;14.98;;;;;;;;;;5030456;28;20072;-85
2022/08/23 03:22:14;;;;;;;31.13;17.73;;;;;;;;;;5017795;28;20103;-84
2022/08/23 03:24:39;;;;;;;30.27;18.52;;;;;;;;;;5020505;28;20044;-78
2022/08/23 03:27:05;;;;;;;31.60;16.30;;;;;;;;;;5025937;28;20033;-86
2022/08/23 03:29:30;;;;;;;27.60;15.40;;;;;;;;;;5039817;28;20318;-79
2022/08/23 03:31:56;;;;;;;27.83;16.60;;;;;;;;;;5021406;28;21419;-86
2022/08/23 03:34:21;;;;;;;26.00;15.80;;;;;;;;;;5019765;28;20031;-80
2022/08/23 03:36:46;;;;;;;32.90;18.52;;;;;;;;;;5022651;28;20496;-79
2022/08/23 03:39:12;;;;;;;23.90;15.38;;;;;;;;;;5013744;28;20095;-78
2022/08/23 03:41:37;;;;;;;25.35;16.33;;;;;;;;;;5036032;28;20059;-86
2022/08/23 03:44:06;;;;;;;26.98;16.55;;;;;;;;;;5019502;28;20549;-79
2022/08/23 03:46:34;;;;;;;26.42;17.23;;;;;;;;;;5024254;28;20037;-79
2022/08/23 03:49:03;;;;;;;30.17;17.77;;;;;;;;;;5019192;28;20060;-84
2022/08/23 03:51:33;;;;;;;31.02;17.45;;;;;;;;;;5024378;28;20025;-80
2022/08/23 03:53:58;;;;;;;27.10;16.90;;;;;;;;;;5025679;28;20026;-85
2022/08/23 03:56:25;;;;;;;32.08;17.08;;;;;;;;;;5025361;28;20025;-86
2022/08/23 03:58:51;;;;;;;26.70;16.45;;;;;;;;;;5036829;28;20029;-86
2022/08/23 04:01:17;;;;;;;28.88;15.38;;;;;;;;;;5020846;28;20037;-83
2022/08/23 04:03:42;;;;;;;34.03;18.63;;;;;;;;;;5022850;28;20040;-88
2022/08/23 04:06:08;;;;;;;30.10;18.90;;;;;;;;;;5039412;28;20078;-86
2022/08/23 04:08:34;;;;;;;30.90;17.70;;;;;;;;;;5026852;28;20037;-79
2022/08/23 04:10:59;;;;;;;34.75;19.45;;;;;;;;;;5024275;28;20111;-79
2022/08/23 04:13:27;;;;;;;30.27;17.50;;;;;;;;;;5022777;28;20124;-83
2022/08/23 04:15:53;;;;;;;31.90;18.27;;;;;;;;;;5057250;28;20065;-79
2022/08/23 04:18:19;;;;;;;28.67;18.02;;;;;;;;;;5024235;28;20030;-84
2022/08/23 04:20:44;;;;;;;32.33;18.20;;;;;;;;;;5020161;28;20367;-78
2022/08/23 04:23:09;;;;;;;33.95;18.83;;;;;;;;;;5025430;28;20036;-80
2022/08/23 04:25:38;;;;;;;27.67;17.37;;;;;;;;;;5020760;28;20033;-79
2022/08/23 04:28:03;;;;;;;29.50;17.95;;;;;;;;;;5023644;28;20887;-84
2022/08/23 04:30:29;;;;;;;32.45;18.23;;;;;;;;;;5025607;28;20030;-86
2022/08/23 04:32:54;;;;;;;30.27;17.77;;;;;;;;;;5022308;28;20030;-79
2022/08/23 04:35:19;;;;;;;33.40;18.60;;;;;;;;;;5023932;28;20041;-79
2022/08/23 04:37:45;;;;;;;38.25;18.92;;;;;;;;;;5021249;28;20068;-85
2022/08/23 04:42:55;;;;;;;27.33;18.42;;;;;;;;;;5020638;28;20049;-80
2022/08/23 04:45:20;;;;;;;37.10;19.83;;;;;;;;;;5021200;28;20392;-80
2022/08/23 04:47:46;;;;;;;34.75;20.30;;;;;;;;;;5022812;28;20060;-79
2022/08/23 04:50:11;;;;;;;31.02;17.75;;;;;;;;;;5035624;28;20025;-86
2022/08/23 04:52:39;;;;;;;27.88;18.77;;;;;;;;;;5020370;28;20022;-88
2022/08/23 04:55:05;;;;;;;32.85;17.67;;;;;;;;;;5038510;28;20116;-86
2022/08/23 04:57:31;;;;;;;35.15;19.02;;;;;;;;;;5020017;28;22519;-80
2022/08/23 04:59:56;;;;;;;33.05;19.85;;;;;;;;;;5023356;28;20037;-85
2022/08/23 05:02:22;;;;;;;32.35;18.40;;;;;;;;;;5025507;28;20376;-79
2022/08/23 05:04:47;;;;;;;37.42;21.00;;;;;;;;;;5020066;28;20068;-86
2022/08/23 05:07:14;;;;;;;34.50;18.38;;;;;;;;;;5025412;28;21436;-79
2022/08/23 05:09:42;;;;;;;31.30;16.35;;;;;;;;;;5025005;28;20025;-84
2022/08/23 05:12:07;;;;;;;25.63;17.23;;;;;;;;;;5021355;28;20402;-79
2022/08/23 05:14:33;;;;;;;35.13;18.77;;;;;;;;;;5038822;28;20025;-86
2022/08/23 05:16:58;;;;;;;30.80;18.33;;;;;;;;;;5023204;28;20033;-79
2022/08/23 05:19:23;;;;;;;30.95;18.58;;;;;;;;;;5024228;28;20106;-85
2022/08/23 05:21:48;;;;;;;29.05;17.63;;;;;;;;;;5025805;28;20056;-79
2022/08/23 05:24:14;;;;;;;30.67;18.30;;;;;;;;;;5037164;28;20025;-79
2022/08/23 05:26:39;;;;;;;30.50;18.42;;;;;;;;;;5027195;28;20038;-79
2022/08/23 05:29:04;;;;;;;26.90;17.48;;;;;;;;;;5023523;28;20020;-79
2022/08/23 05:31:30;;;;;;;30.88;16.90;;;;;;;;;;5038570;28;20120;-80
2022/08/23 05:33:55;;;;;;;30.70;18.58;;;;;;;;;;5022737;28;20075;-79
2022/08/23 05:36:21;;;;;;;30.23;17.17;;;;;;;;;;5040006;28;20033;-83
2022/08/23 05:38:46;;;;;;;29.65;18.02;;;;;;;;;;5042727;28;20036;-86
2022/08/23 05:41:12;;;;;;;31.15;19.52;;;;;;;;;;5023712;28;20026;-84
2022/08/23 05:43:37;;;;;;;36.45;20.10;;;;;;;;;;5022316;28;20084;-79
2022/08/23 05:46:05;;;;;;;33.55;18.52;;;;;;;;;;5039563;28;20115;-86
2022/08/23 05:48:32;;;;;;;33.35;18.02;;;;;;;;;;5019827;28;20037;-79
2022/08/23 05:51:06;;;;;;;31.83;19.55;;;;;;;;;;5022541;28;20025;-81
2022/08/23 05:53:31;;;;;;;32.13;19.23;;;;;;;;;;5018838;28;20021;-84
2022/08/23 05:56:07;;;;;;;32.38;18.35;;;;;;;;;;5023743;28;20497;-83
2022/08/23 05:58:35;;;;;;;35.83;21.33;;;;;;;;;;5018600;28;20470;-80
2022/08/23 06:01:03;;;;;;;28.60;19.20;;;;;;;;;;5051671;28;20093;-79
2022/08/23 06:03:29;;;;;;;31.27;19.55;;;;;;;;;;5018966;28;20024;-83
2022/08/23 06:05:57;;;;;;;34.65;20.90;;;;;;;;;;5023841;28;20029;-85
2022/08/23 06:08:22;;;;;;;33.75;20.45;;;;;;;;;;5024539;28;20382;-84
2022/08/23 06:10:48;;;;;;;34.72;19.85;;;;;;;;;;5021143;28;20110;-81
2022/08/23 06:13:13;;;;;;;33.92;17.52;;;;;;;;;;5025891;28;20025;-79
2022/08/23 06:15:42;;;;;;;33.83;19.65;;;;;;;;;;5008781;28;20029;-80
2022/08/23 06:18:08;;;;;;;39.33;21.77;;;;;;;;;;5021600;28;20467;-80
2022/08/23 06:20:36;;;;;;;31.33;18.88;;;;;;;;;;5020256;28;20073;-85
2022/08/23 06:23:04;;;;;;;35.22;19.60;;;;;;;;;;5018992;28;20029;-83
2022/08/23 06:25:30;;;;;;;31.85;19.50;;;;;;;;;;5019726;28;20661;-83
2022/08/23 06:27:57;;;;;;;34.28;20.73;;;;;;;;;;5042622;28;20072;-85
2022/08/23 06:30:22;;;;;;;32.97;20.13;;;;;;;;;;5019287;28;20614;-80
2022/08/23 06:32:48;;;;;;;41.28;24.60;;;;;;;;;;5020766;28;20025;-85
2022/08/23 06:35:14;;;;;;;35.03;22.27;;;;;;;;;;5038361;28;20116;-81
2022/08/23 06:37:40;;;;;;;34.42;19.58;;;;;;;;;;5023382;28;20116;-80
2022/08/23 06:40:05;;;;;;;36.03;20.80;;;;;;;;;;5022694;28;20381;-81
2022/08/23 06:42:31;;;;;;;34.20;21.55;;;;;;;;;;5023877;28;20076;-79
2022/08/23 06:44:56;;;;;;;34.97;23.42;;;;;;;;;;5038396;28;20033;-84
2022/08/23 06:47:21;;;;;;;38.40;21.45;;;;;;;;;;5023365;28;20496;-85
2022/08/23 06:49:46;;;;;;;38.00;20.90;;;;;;;;;;5026843;28;20512;-81
2022/08/23 06:52:12;;;;;;;30.73;20.20;;;;;;;;;;5024753;28;20038;-80
2022/08/23 06:54:38;;;;;;;31.63;21.00;;;;;;;;;;5037208;28;20030;-84
2022/08/23 06:57:04;;;;;;;44.95;28.33;;;;;;;;;;5022396;28;20091;-88
2022/08/23 06:59:30;;;;;;;45.00;28.20;;;;;;;;;;5020895;28;20133;-87
2022/08/23 07:01:57;;;;;;;41.97;26.58;;;;;;;;;;5029912;28;20029;-87
2022/08/23 07:04:23;;;;;;;35.90;21.23;;;;;;;;;;5029154;28;20044;-81
2022/08/23 07:06:49;;;;;;;43.08;24.73;;;;;;;;;;5041508;28;20025;-87
2022/08/23 07:09:14;;;;;;;37.17;22.25;;;;;;;;;;5024297;28;21119;-86
2022/08/23 07:11:40;;;;;;;28.63;17.67;;;;;;;;;;5021091;28;20055;-80
2022/08/23 07:14:07;;;;;;;26.67;16.27;;;;;;;;;;5030003;28;20081;-84
2022/08/23 07:16:46;;;;;;;24.88;15.68;;;;;;;;;;5022316;28;20033;-81
2022/08/23 07:19:12;;;;;;;37.17;21.25;;;;;;;;;;5027183;28;20056;-81
2022/08/23 07:21:37;;;;;;;45.28;23.77;;;;;;;;;;5028472;28;20512;-87
2022/08/23 07:24:06;;;;;;;35.33;21.53;;;;;;;;;;5023169;28;20084;-83
2022/08/23 07:26:31;;;;;;;31.23;18.33;;;;;;;;;;5042059;28;20283;-89
2022/08/23 07:28:57;;;;;;;33.70;17.90;;;;;;;;;;5030123;28;20044;-85
2022/08/23 07:31:26;;;;;;;40.13;22.15;;;;;;;;;;5024937;28;20032;-81
2022/08/23 07:33:52;;;;;;;27.83;17.42;;;;;;;;;;5030328;28;20024;-85
2022/08/23 07:36:18;;;;;;;39.50;22.45;;;;;;;;;;5046041;28;20473;-88
2022/08/23 07:38:44;;;;;;;26.02;15.40;;;;;;;;;;5026877;28;20084;-79
2022/08/23 07:41:10;;;;;;;39.17;18.10;;;;;;;;;;5026002;28;20123;-81
2022/08/23 07:43:36;;;;;;;33.13;14.73;;;;;;;;;;5029184;28;20033;-79
2022/08/23 07:46:02;;;;;;;23.05;13.90;;;;;;;;;;5058850;28;20036;-84
2022/08/23 07:48:27;;;;;;;24.77;14.68;;;;;;;;;;5018286;28;20087;-80
2022/08/23 07:50:53;;;;;;;18.77;12.38;;;;;;;;;;5051425;28;20493;-79
2022/08/23 07:53:19;;;;;;;23.98;11.98;;;;;;;;;;5021466;28;20104;-83
2022/08/23 07:55:44;;;;;;;15.98;11.20;;;;;;;;;;5021856;28;20528;-79
2022/08/23 07:58:09;;;;;;;28.87;13.47;;;;;;;;;;5021481;28;20033;-79
2022/08/23 08:00:35;;;;;;;26.00;13.20;;;;;;;;;;5016526;28;20339;-83
2022/08/23 08:03:00;;;;;;;19.00;14.15;;;;;;;;;;5019675;28;20547;-80
2022/08/23 08:05:25;;;;;;;20.25;14.25;;;;;;;;;;5020912;28;20033;-82
2022/08/23 08:07:51;;;;;;;23.77;14.27;;;;;;;;;;5023390;28;20037;-80
2022/08/23 08:10:16;;;;;;;21.45;13.40;;;;;;;;;;5019864;28;20025;-79
2022/08/23 08:12:41;;;;;;;21.30;14.23;;;;;;;;;;5036383;28;22420;-83
2022/08/23 08:15:07;;;;;;;29.45;15.15;;;;;;;;;;5020144;28;20473;-80
2022/08/23 08:17:32;;;;;;;24.90;14.77;;;;;;;;;;5041764;28;20079;-80
2022/08/23 08:19:57;;;;;;;23.70;13.90;;;;;;;;;;5036057;28;20711;-83
2022/08/23 08:22:23;;;;;;;21.00;13.23;;;;;;;;;;5023614;28;20073;-80
2022/08/23 08:24:48;;;;;;;27.20;16.60;;;;;;;;;;5016423;28;20034;-80
2022/08/23 08:27:13;;;;;;;41.97;23.50;;;;;;;;;;5023705;28;20120;-85
2022/08/23 08:29:39;;;;;;;29.52;19.20;;;;;;;;;;5018354;28;20279;-83
2022/08/23 08:32:04;;;;;;;26.88;17.83;;;;;;;;;;5021470;28;20112;-80
2022/08/23 08:34:30;;;;;;;33.80;20.08;;;;;;;;;;5021569;28;20021;-79
2022/08/23 08:36:57;;;;;;;18.00;12.52;;;;;;;;;;5035092;28;20041;-81
2022/08/23 08:39:27;;;;;;;24.60;14.07;;;;;;;;;;5019534;28;20449;-84
2022/08/23 08:41:55;;;;;;;39.15;20.40;;;;;;;;;;5037085;28;20029;-84
2022/08/23 08:44:31;;;;;;;16.13;11.57;;;;;;;;;;5024391;28;20665;-83
2022/08/23 08:46:57;;;;;;;18.25;11.70;;;;;;;;;;5034548;28;20417;-80
2022/08/23 08:49:32;;;;;;;35.55;21.33;;;;;;;;;;5011798;28;20045;-83
2022/08/23 08:52:12;;;;;;;21.05;11.93;;;;;;;;;;5024595;28;20045;-82
2022/08/23 08:54:37;;;;;;;18.83;11.88;;;;;;;;;;5017716;28;20501;-80
2022/08/23 08:57:05;;;;;;;23.63;12.35;;;;;;;;;;5036041;28;20040;-81
2022/08/23 08:59:49;;;;;;;33.55;18.40;;;;;;;;;;5020632;28;20036;-84
2022/08/23 09:02:17;;;;;;;27.45;14.55;;;;;;;;;;5022852;28;20053;-83
2022/08/23 09:04:42;;;;;;;24.55;12.73;;;;;;;;;;5017925;28;20080;-81
2022/08/23 09:07:08;;;;;;;42.38;21.58;;;;;;;;;;5040670;28;20041;-84
2022/08/23 09:10:01;;;;;;;36.78;21.90;;;;;;;;;;5027492;28;20072;-84
2022/08/23 09:12:32;;;;;;;24.42;17.02;;;;;;;;;;5032073;28;20045;-81
2022/08/23 09:15:17;;;;;;;40.58;25.63;;;;;;;;;;5019835;28;20029;-79
2022/08/23 09:17:48;;;;;;;37.65;20.65;;;;;;;;;;5009912;28;20037;-84
2022/08/23 09:20:14;;;;;;;22.08;12.55;;;;;;;;;;5020001;28;20397;-79
2022/08/23 09:22:41;;;;;;;49.22;24.38;;;;;;;;;;5038994;28;20037;-85
2022/08/23 09:25:07;;;;;;;26.00;12.27;;;;;;;;;;5023938;28;20442;-83
2022/08/23 09:27:32;;;;;;;36.28;21.23;;;;;;;;;;5022279;28;20512;-79
2022/08/23 09:29:59;;;;;;;28.73;17.55;;;;;;;;;;5032276;28;20069;-84
2022/08/23 09:32:30;;;;;;;36.13;20.63;;;;;;;;;;5023464;28;20026;-84
2022/08/23 09:35:14;;;;;;;21.85;10.85;;;;;;;;;;5023551;28;20065;-80
2022/08/23 09:37:45;;;;;;;26.17;14.80;;;;;;;;;;5021350;28;20560;-84
2022/08/23 09:40:19;;;;;;;22.23;13.23;;;;;;;;;;5021612;28;20072;-86
2022/08/23 09:42:46;;;;;;;33.92;18.80;;;;;;;;;;5021777;28;20139;-85
2022/08/23 09:45:23;;;;;;;30.95;17.15;;;;;;;;;;5040333;28;20051;-79
2022/08/23 09:47:48;;;;;;;32.75;19.42;;;;;;;;;;5024643;28;20025;-80
2022/08/23 09:50:28;;;;;;;33.25;17.65;;;;;;;;;;5041564;28;20075;-80
2022/08/23 09:52:57;;;;;;;26.88;15.68;;;;;;;;;;5024141;28;20029;-80
2022/08/23 09:55:27;;;;;;;23.50;13.32;;;;;;;;;;5024969;28;20033;-80
2022/08/23 09:57:52;;;;;;;27.48;14.70;;;;;;;;;;5025909;28;20037;-78
2022/08/23 10:00:22;;;;;;;24.95;15.43;;;;;;;;;;5026168;28;20489;-83
2022/08/23 10:02:47;;;;;;;27.70;14.80;;;;;;;;;;5022317;28;20111;-83
2022/08/23 10:05:17;;;;;;;36.00;17.92;;;;;;;;;;5034407;28;20036;-78
2022/08/23 10:07:54;;;;;;;28.83;14.73;;;;;;;;;;5038347;28;20041;-83
2022/08/23 10:10:23;;;;;;;24.60;14.15;;;;;;;;;;5023698;28;20034;-83
2022/08/23 10:12:49;;;;;;;30.40;17.48;;;;;;;;;;5020927;28;20394;-78
2022/08/23 10:15:15;;;;;;;30.15;16.05;;;;;;;;;;5017382;28;20025;-79
2022/08/23 10:17:40;;;;;;;27.25;13.75;;;;;;;;;;5039003;28;20052;-81
2022/08/23 10:20:15;;;;;;;24.15;14.38;;;;;;;;;;5021210;28;20121;-83
2022/08/23 10:23:03;;;;;;;29.88;14.05;;;;;;;;;;5017802;28;20092;-81
2022/08/23 10:25:34;;;;;;;35.92;15.38;;;;;;;;;;4992309;28;20383;-83
2022/08/23 10:31:02;;;;;;;;;;;;;;;;;;5019988;28;20083;-81
2022/08/23 10:33:50;;;;;;;28.60;15.20;;;;;;;;;;5021412;28;19917;-81
2022/08/23 10:36:26;;;;;;;25.48;14.48;;;;;;;;;;5019501;28;20037;-78
2022/08/23 10:38:51;;;;;;;22.60;12.20;;;;;;;;;;5020630;28;20112;-79
2022/08/23 10:41:21;;;;;;;22.25;11.48;;;;;;;;;;5023481;28;20710;-82
2022/08/23 10:44:05;;;;;;;28.83;14.35;;;;;;;;;;5021946;28;20021;-79
2022/08/23 10:46:35;;;;;;;29.92;14.80;;;;;;;;;;5022807;28;20033;-83
2022/08/23 10:49:01;;;;;;;22.35;12.43;;;;;;;;;;5020690;28;20025;-82
2022/08/23 10:51:31;;;;;;;18.10;11.65;;;;;;;;;;5020664;28;20385;-83
2022/08/23 10:54:00;;;;;;;20.90;10.18;;;;;;;;;;5036205;28;20482;-82
2022/08/23 10:56:26;;;;;;;16.30;8.82;;;;;;;;;;5045987;28;20025;-81
2022/08/23 10:58:53;;;;;;;20.40;10.70;;;;;;;;;;5030814;28;20021;-82
2022/08/23 11:01:21;;;;;;;21.10;12.43;;;;;;;;;;5035645;28;20025;-79
2022/08/23 11:03:55;;;;;;;30.30;15.90;;;;;;;;;;5022741;28;20112;-81
2022/08/23 11:06:24;;;;;;;26.83;12.93;;;;;;;;;;5045144;28;20047;-80
2022/08/23 11:08:57;;;;;;;24.40;12.48;;;;;;;;;;5032010;28;20028;-80
2022/08/23 11:11:42;;;;;;;17.75;10.57;;;;;;;;;;5041985;28;20073;-83
2022/08/23 11:14:29;;;;;;;19.90;10.48;;;;;;;;;;5028248;28;20060;-81
2022/08/23 11:17:07;;;;;;;22.88;10.05;;;;;;;;;;5036197;28;20512;-80
2022/08/23 11:19:51;;;;;;;17.65;9.02;;;;;;;;;;5030373;28;20064;-81
2022/08/23 11:22:21;;;;;;;20.38;10.23;;;;;;;;;;5028116;28;20108;-80
2022/08/23 11:25:07;;;;;;;24.48;9.00;;;;;;;;;;5031221;28;20477;-82
2022/08/23 11:27:34;;;;;;;17.98;7.40;;;;;;;;;;5013850;28;20378;-81
2022/08/23 11:30:18;;;;;;;22.50;8.07;;;;;;;;;;5026678;28;20032;-82
2022/08/23 11:32:44;;;;;;;17.38;7.82;;;;;;;;;;5030382;28;20056;-81
2022/08/23 11:35:28;;;;;;;16.60;6.90;;;;;;;;;;5044333;28;20444;-81
2022/08/23 11:37:58;;;;;;;14.07;6.40;;;;;;;;;;5043184;28;20509;-82
2022/08/23 11:40:42;;;;;;;15.23;6.38;;;;;;;;;;5029351;28;22526;-81
2022/08/23 11:43:19;;;;;;;12.65;5.40;;;;;;;;;;5027465;28;20027;-82
2022/08/23 11:45:47;;;;;;;11.80;6.38;;;;;;;;;;5027568;28;20108;-81
2022/08/23 11:48:24;;;;;;;25.05;7.10;;;;;;;;;;5047170;28;20520;-82
2022/08/23 11:50:49;;;;;;;16.55;6.05;;;;;;;;;;5026868;28;20551;-81
2022/08/23 11:53:21;;;;;;;17.88;8.15;;;;;;;;;;5024479;28;20055;-82
2022/08/23 11:56:02;;;;;;;14.75;6.80;;;;;;;;;;5027188;28;20036;-81
2022/08/23 11:58:33;;;;;;;12.93;6.97;;;;;;;;;;5045912;28;20029;-85
2022/08/23 12:01:06;;;;;;;14.77;7.97;;;;;;;;;;5033189;28;20029;-80
2022/08/23 12:03:33;;;;;;;17.92;7.60;;;;;;;;;;5033506;28;20794;-86
2022/08/23 12:06:02;;;;;;;15.45;7.00;;;;;;;;;;5024235;28;20025;-81
2022/08/23 12:08:46;;;;;;;14.23;7.35;;;;;;;;;;5026359;28;20471;-85
2022/08/23 12:11:11;;;;;;;15.10;7.97;;;;;;;;;;5023921;28;20057;-82
2022/08/23 12:13:45;;;;;;;15.43;7.70;;;;;;;;;;5043710;28;20032;-81
2022/08/23 12:16:13;;;;;;;12.32;7.28;;;;;;;;;;5029718;28;20056;-85
2022/08/23 12:18:47;;;;;;;13.57;7.00;;;;;;;;;;5036223;28;20028;-85
2022/08/23 12:21:34;;;;;;;16.15;9.00;;;;;;;;;;5021885;28;20269;-85
2022/08/23 12:24:26;;;;;;;16.48;8.48;;;;;;;;;;5026600;28;20021;-81
2022/08/23 12:27:01;;;;;;;12.23;7.22;;;;;;;;;;5039654;28;20048;-82
2022/08/23 12:29:31;;;;;;;18.90;8.38;;;;;;;;;;5028863;28;20088;-81
2022/08/23 12:32:06;;;;;;;12.65;7.45;;;;;;;;;;5039012;28;20025;-85
2022/08/23 12:34:31;;;;;;;12.95;8.20;;;;;;;;;;5021855;28;20036;-86
2022/08/23 12:37:16;;;;;;;12.68;7.18;;;;;;;;;;5026278;28;20111;-85
2022/08/23 12:39:49;;;;;;;16.13;6.53;;;;;;;;;;5025257;28;20038;-86
2022/08/23 12:42:18;;;;;;;14.65;7.47;;;;;;;;;;5024287;28;20112;-84
2022/08/23 12:44:45;;;;;;;14.63;8.20;;;;;;;;;;5026977;28;20037;-84
2022/08/23 12:47:15;;;;;;;15.60;7.95;;;;;;;;;;5034988;28;20437;-81
2022/08/23 12:49:41;;;;;;;18.52;7.80;;;;;;;;;;5040616;28;20029;-82
2022/08/23 12:52:08;;;;;;;13.38;8.10;;;;;;;;;;5043046;28;20101;-81
2022/08/23 12:54:41;;;;;;;14.93;8.40;;;;;;;;;;5024377;28;20030;-81
2022/08/23 12:57:10;;;;;;;12.95;7.78;;;;;;;;;;5045611;28;20076;-82
2022/08/23 12:59:56;;;;;;;18.17;8.55;;;;;;;;;;5028195;28;20052;-81
2022/08/23 13:02:42;;;;;;;14.35;7.72;;;;;;;;;;5025310;28;20085;-81
2022/08/23 13:05:13;;;;;;;22.50;8.45;;;;;;;;;;5046372;28;20128;-80
2022/08/23 13:07:39;;;;;;;21.40;9.20;;;;;;;;;;5023726;28;20507;-81
2022/08/23 13:10:06;;;;;;;15.45;8.68;;;;;;;;;;5028475;28;20040;-86
2022/08/23 13:12:31;;;;;;;19.33;8.65;;;;;;;;;;5024507;28;20081;-83
2022/08/23 13:15:00;;;;;;;14.15;8.63;;;;;;;;;;5039080;28;20052;-81
2022/08/23 13:17:25;;;;;;;16.27;9.00;;;;;;;;;;5029715;28;20488;-80
2022/08/23 13:19:59;;;;;;;17.57;8.77;;;;;;;;;;5025258;28;20037;-81
2022/08/23 13:22:25;;;;;;;13.52;8.20;;;;;;;;;;5023360;28;20274;-82
2022/08/23 13:24:58;;;;;;;15.30;9.48;;;;;;;;;;5025468;28;20037;-84
2022/08/23 13:27:25;;;;;;;19.42;8.32;;;;;;;;;;5025974;28;20083;-80
2022/08/23 13:30:09;;;;;;;31.33;9.10;;;;;;;;;;5024243;28;20032;-81
2022/08/23 13:32:48;;;;;;;19.48;9.18;;;;;;;;;;5042833;28;20622;-81
2022/08/23 13:35:31;;;;;;;21.55;10.60;;;;;;;;;;5030315;28;20486;-85
2022/08/23 13:38:05;;;;;;;13.70;8.82;;;;;;;;;;5024783;28;20041;-78
2022/08/23 13:40:32;;;;;;;15.05;8.77;;;;;;;;;;5022363;28;20041;-82
2022/08/23 13:43:00;;;;;;;21.45;10.05;;;;;;;;;;5033859;28;20025;-82
2022/08/23 13:45:27;;;;;;;13.80;8.50;;;;;;;;;;5040091;28;20030;-78
2022/08/23 13:47:58;;;;;;;14.35;8.55;;;;;;;;;;5037147;28;20029;-82
2022/08/23 13:50:28;;;;;;;17.52;9.10;;;;;;;;;;5022516;28;20025;-82
2022/08/23 13:52:53;;;;;;;18.00;9.00;;;;;;;;;;5022885;28;20038;-83
2022/08/23 13:55:19;;;;;;;16.05;8.35;;;;;;;;;;5040829;28;20036;-83
2022/08/23 13:57:44;;;;;;;20.83;9.27;;;;;;;;;;5023617;28;20029;-81
2022/08/23 14:00:09;;;;;;;19.23;8.65;;;;;;;;;;5022933;28;20481;-82
2022/08/23 14:02:35;;;;;;;15.98;9.20;;;;;;;;;;5036750;28;20034;-83
2022/08/23 14:05:01;;;;;;;20.45;9.32;;;;;;;;;;5012874;28;20911;-82
2022/08/23 14:07:26;;;;;;;18.52;9.48;;;;;;;;;;5023587;28;20060;-84
2022/08/23 14:09:52;;;;;;;17.02;9.48;;;;;;;;;;5039032;28;20030;-83
2022/08/23 14:12:20;;;;;;;16.50;10.52;;;;;;;;;;5037640;28;20041;-83
2022/08/23 14:14:45;;;;;;;15.07;8.98;;;;;;;;;;5020543;28;20025;-84
2022/08/23 14:17:11;;;;;;;16.52;10.50;;;;;;;;;;5035126;28;20042;-84
2022/08/23 14:19:36;;;;;;;15.68;9.23;;;;;;;;;;5035891;28;20029;-83
2022/08/23 14:22:03;;;;;;;17.65;10.70;;;;;;;;;;5019341;28;20075;-84
2022/08/23 14:24:29;;;;;;;14.65;9.15;;;;;;;;;;5051921;28;20053;-82
2022/08/23 14:26:55;;;;;;;17.85;10.05;;;;;;;;;;5022133;28;20588;-82
2022/08/23 14:29:20;;;;;;;17.55;10.48;;;;;;;;;;5020336;28;20060;-82
2022/08/23 14:31:46;;;;;;;20.83;9.45;;;;;;;;;;5022637;28;20053;-83
2022/08/23 14:34:11;;;;;;;20.23;9.55;;;;;;;;;;5022718;28;20045;-83
2022/08/23 14:36:36;;;;;;;21.17;9.43;;;;;;;;;;5036266;28;20036;-83
2022/08/23 14:39:02;;;;;;;16.13;10.63;;;;;;;;;;5024033;28;20282;-83